This is the latest recevied weather packets stored in our database for station/object DO2TC-13. If no packets are shown the sender has not sent any weather packets the latest 10 day(s).
| Time | Temp. | Humidity | Pressure | Rain* | Wind** | Luminosity | Snow |
|---|---|---|---|---|---|---|---|
| 1777564558 | 18.33° C | 38% | 1028.6 hPa | 0 mm | - | 276 W/m² | - |
| 1777559772 | 19.44° C | 36% | 1028.8 hPa | 0 mm | - | 517 W/m² | - |
| 1777557937 | 18.89° C | 36% | 1029.1 hPa | 0 mm | - | 585 W/m² | - |
| 1777556727 | 19.44° C | 37% | 1029.3 hPa | 0 mm | - | 648 W/m² | - |
| 1777556121 | 19.44° C | 37% | 1029.3 hPa | 0 mm | - | 629 W/m² | - |
| 1777552558 | 18.89° C | 37% | 1029.9 hPa | 0 mm | - | 752 W/m² | - |
| 1777546564 | 18.33° C | 39% | 1029.9 hPa | 0 mm | - | 829 W/m² | - |
| 1777545955 | 18.33° C | 39% | 1030 hPa | 0 mm | - | 816 W/m² | - |
| 1777544139 | 18.33° C | 40% | 1030 hPa | 0 mm | - | 735 W/m² | - |
| 1777541173 | 17.22° C | 41% | 1030.3 hPa | 0 mm | - | 684 W/m² | - |
| 1777540588 | 16.67° C | 40% | 1030.4 hPa | 0 mm | - | 684 W/m² | - |
| 1777536940 | 15° C | 42% | 1030.7 hPa | 0 mm | - | 575 W/m² | - |
| 1777533974 | 12.78° C | 50% | 1030.7 hPa | 0 mm | - | 474 W/m² | - |
| 1777533373 | 12.78° C | 50% | 1030.9 hPa | 0 mm | - | 441 W/m² | - |
| 1777530949 | 11.11° C | 50% | 1031 hPa | 0 mm | - | 321 W/m² | - |
| 1777522537 | - | - | 1030.4 hPa | 0 mm | - | 26 W/m² | - |
| 1777519571 | - | - | 1030.5 hPa | 0 mm | - | 2 W/m² | - |
| 1777515937 | - | - | 1030.8 hPa | 0 mm | - | 0 W/m² | - |
| 1777514728 | - | - | 1030.8 hPa | 0 mm | - | 0 W/m² | - |
| 1777512973 | - | - | 1030.7 hPa | 0 mm | - | 0 W/m² | - |
| 1777512370 | - | - | 1030.6 hPa | 0 mm | - | 0 W/m² | - |
| 1777507527 | - | - | 1030.8 hPa | 0 mm | - | 0 W/m² | - |
| 1777503957 | - | - | 1030.8 hPa | 0 mm | - | 0 W/m² | - |
| 1777501537 | - | - | 1030.8 hPa | 0 mm | - | 0 W/m² | - |
| 1777493733 | 5° C | 68% | 1030.3 hPa | 0 mm | - | 0 W/m² | - |
* Rain latest hour (hover to see other rain measurements)
** Current wind speed in m/s (hover to see current wind gust speed)